sensor_id;sensor_type;location;lat;lon;timestamp;P1;durP1;ratioP1;P2;durP2;ratioP2
26211;SDS011;13951;49.516;6.094;2023-12-20T00:01:44;1.07;;;0.90;;
26211;SDS011;13951;49.516;6.094;2023-12-20T00:04:19;0.90;;;0.60;;
26211;SDS011;13951;49.516;6.094;2023-12-20T00:07:06;0.93;;;0.70;;
26211;SDS011;13951;49.516;6.094;2023-12-20T00:09:54;1.30;;;0.70;;
26211;SDS011;13951;49.516;6.094;2023-12-20T00:12:31;1.70;;;0.80;;
26211;SDS011;13951;49.516;6.094;2023-12-20T00:15:18;0.93;;;0.60;;
26211;SDS011;13951;49.516;6.094;2023-12-20T00:17:51;1.60;;;0.80;;
26211;SDS011;13951;49.516;6.094;2023-12-20T00:20:38;0.70;;;0.70;;
26211;SDS011;13951;49.516;6.094;2023-12-20T00:23:25;1.57;;;0.90;;
26211;SDS011;13951;49.516;6.094;2023-12-20T00:26:00;1.10;;;0.93;;
26211;SDS011;13951;49.516;6.094;2023-12-20T00:28:35;1.10;;;1.00;;
26211;SDS011;13951;49.516;6.094;2023-12-20T00:31:22;1.00;;;0.90;;
26211;SDS011;13951;49.516;6.094;2023-12-20T00:34:03;2.90;;;1.07;;
26211;SDS011;13951;49.516;6.094;2023-12-20T00:36:50;1.10;;;1.00;;
26211;SDS011;13951;49.516;6.094;2023-12-20T00:39:37;2.10;;;1.20;;
26211;SDS011;13951;49.516;6.094;2023-12-20T00:42:18;1.43;;;1.10;;
26211;SDS011;13951;49.516;6.094;2023-12-20T00:44:55;1.20;;;1.10;;
26211;SDS011;13951;49.516;6.094;2023-12-20T00:47:42;1.30;;;1.10;;
26211;SDS011;13951;49.516;6.094;2023-12-20T00:50:30;1.10;;;0.93;;
26211;SDS011;13951;49.516;6.094;2023-12-20T00:53:17;1.47;;;1.13;;
26211;SDS011;13951;49.516;6.094;2023-12-20T00:56:04;1.30;;;1.20;;
26211;SDS011;13951;49.516;6.094;2023-12-20T00:58:38;2.50;;;1.20;;
26211;SDS011;13951;49.516;6.094;2023-12-20T01:01:26;1.30;;;1.20;;
26211;SDS011;13951;49.516;6.094;2023-12-20T01:04:13;1.27;;;1.17;;
26211;SDS011;13951;49.516;6.094;2023-12-20T01:07:00;2.60;;;1.30;;
26211;SDS011;13951;49.516;6.094;2023-12-20T01:09:47;1.90;;;1.23;;
26211;SDS011;13951;49.516;6.094;2023-12-20T01:12:35;1.87;;;1.40;;
26211;SDS011;13951;49.516;6.094;2023-12-20T01:15:24;1.57;;;1.40;;
26211;SDS011;13951;49.516;6.094;2023-12-20T01:18:11;1.60;;;1.50;;
26211;SDS011;13951;49.516;6.094;2023-12-20T01:21:01;1.50;;;1.37;;
26211;SDS011;13951;49.516;6.094;2023-12-20T01:23:53;1.30;;;1.20;;
26211;SDS011;13951;49.516;6.094;2023-12-20T01:26:30;1.60;;;1.30;;
26211;SDS011;13951;49.516;6.094;2023-12-20T01:29:18;1.90;;;1.60;;
26211;SDS011;13951;49.516;6.094;2023-12-20T01:32:05;1.70;;;1.37;;
26211;SDS011;13951;49.516;6.094;2023-12-20T01:34:52;2.03;;;1.80;;
26211;SDS011;13951;49.516;6.094;2023-12-20T01:37:40;2.23;;;1.70;;
26211;SDS011;13951;49.516;6.094;2023-12-20T01:40:18;1.60;;;1.50;;
26211;SDS011;13951;49.516;6.094;2023-12-20T01:43:09;3.10;;;1.53;;
26211;SDS011;13951;49.516;6.094;2023-12-20T01:45:58;3.83;;;1.90;;
26211;SDS011;13951;49.516;6.094;2023-12-20T01:48:45;2.97;;;2.13;;
26211;SDS011;13951;49.516;6.094;2023-12-20T01:51:35;4.73;;;2.77;;
26211;SDS011;13951;49.516;6.094;2023-12-20T01:54:22;3.33;;;2.73;;
26211;SDS011;13951;49.516;6.094;2023-12-20T01:57:00;4.17;;;2.73;;
26211;SDS011;13951;49.516;6.094;2023-12-20T01:59:48;4.00;;;2.90;;
26211;SDS011;13951;49.516;6.094;2023-12-20T02:02:37;3.43;;;2.40;;
26211;SDS011;13951;49.516;6.094;2023-12-20T02:05:26;3.33;;;2.50;;
26211;SDS011;13951;49.516;6.094;2023-12-20T02:08:14;3.70;;;2.70;;
26211;SDS011;13951;49.516;6.094;2023-12-20T02:11:01;3.60;;;2.70;;
26211;SDS011;13951;49.516;6.094;2023-12-20T02:13:48;5.10;;;3.20;;
26211;SDS011;13951;49.516;6.094;2023-12-20T02:16:35;4.33;;;3.13;;
26211;SDS011;13951;49.516;6.094;2023-12-20T02:19:22;6.60;;;3.97;;
26211;SDS011;13951;49.516;6.094;2023-12-20T02:22:10;4.23;;;3.23;;
26211;SDS011;13951;49.516;6.094;2023-12-20T02:24:58;5.57;;;4.00;;
26211;SDS011;13951;49.516;6.094;2023-12-20T02:27:45;5.53;;;3.93;;
26211;SDS011;13951;49.516;6.094;2023-12-20T02:30:32;5.10;;;3.40;;
26211;SDS011;13951;49.516;6.094;2023-12-20T02:33:20;4.50;;;3.43;;
26211;SDS011;13951;49.516;6.094;2023-12-20T02:36:07;5.93;;;3.77;;
26211;SDS011;13951;49.516;6.094;2023-12-20T02:38:54;4.97;;;3.53;;
26211;SDS011;13951;49.516;6.094;2023-12-20T02:41:41;4.90;;;3.37;;
26211;SDS011;13951;49.516;6.094;2023-12-20T02:44:29;4.60;;;3.40;;
26211;SDS011;13951;49.516;6.094;2023-12-20T02:47:16;4.50;;;3.20;;
26211;SDS011;13951;49.516;6.094;2023-12-20T02:50:03;6.00;;;3.70;;
26211;SDS011;13951;49.516;6.094;2023-12-20T02:52:50;4.87;;;3.40;;
26211;SDS011;13951;49.516;6.094;2023-12-20T02:55:38;5.60;;;3.70;;
26211;SDS011;13951;49.516;6.094;2023-12-20T02:58:25;4.23;;;3.27;;
26211;SDS011;13951;49.516;6.094;2023-12-20T03:01:13;6.43;;;3.63;;
26211;SDS011;13951;49.516;6.094;2023-12-20T03:04:01;6.03;;;3.70;;
26211;SDS011;13951;49.516;6.094;2023-12-20T03:06:47;4.37;;;3.13;;
26211;SDS011;13951;49.516;6.094;2023-12-20T03:09:34;4.23;;;3.10;;
26211;SDS011;13951;49.516;6.094;2023-12-20T03:12:21;6.47;;;3.10;;
26211;SDS011;13951;49.516;6.094;2023-12-20T03:14:55;6.13;;;3.20;;
26211;SDS011;13951;49.516;6.094;2023-12-20T03:17:42;5.07;;;3.40;;
26211;SDS011;13951;49.516;6.094;2023-12-20T03:20:29;5.73;;;3.50;;
26211;SDS011;13951;49.516;6.094;2023-12-20T03:23:07;6.33;;;3.57;;
26211;SDS011;13951;49.516;6.094;2023-12-20T03:25:54;3.80;;;3.13;;
26211;SDS011;13951;49.516;6.094;2023-12-20T03:28:42;7.13;;;3.43;;
26211;SDS011;13951;49.516;6.094;2023-12-20T03:31:29;5.67;;;3.10;;
26211;SDS011;13951;49.516;6.094;2023-12-20T03:34:16;7.17;;;2.73;;
26211;SDS011;13951;49.516;6.094;2023-12-20T03:37:04;5.63;;;2.33;;
26211;SDS011;13951;49.516;6.094;2023-12-20T03:39:51;4.10;;;2.50;;
26211;SDS011;13951;49.516;6.094;2023-12-20T03:42:39;5.17;;;2.53;;
26211;SDS011;13951;49.516;6.094;2023-12-20T03:45:14;9.10;;;2.37;;
26211;SDS011;13951;49.516;6.094;2023-12-20T03:48:01;7.87;;;2.57;;
26211;SDS011;13951;49.516;6.094;2023-12-20T03:50:49;4.60;;;2.13;;
26211;SDS011;13951;49.516;6.094;2023-12-20T03:53:37;6.03;;;2.00;;
26211;SDS011;13951;49.516;6.094;2023-12-20T03:56:25;10.03;;;2.43;;
26211;SDS011;13951;49.516;6.094;2023-12-20T03:59:12;8.17;;;2.50;;
26211;SDS011;13951;49.516;6.094;2023-12-20T04:01:59;6.80;;;2.40;;
26211;SDS011;13951;49.516;6.094;2023-12-20T04:04:48;4.67;;;1.80;;
26211;SDS011;13951;49.516;6.094;2023-12-20T04:07:35;5.50;;;2.40;;
26211;SDS011;13951;49.516;6.094;2023-12-20T04:10:22;8.63;;;2.87;;
26211;SDS011;13951;49.516;6.094;2023-12-20T04:13:10;5.03;;;2.30;;
26211;SDS011;13951;49.516;6.094;2023-12-20T04:15:47;6.43;;;2.37;;
26211;SDS011;13951;49.516;6.094;2023-12-20T04:18:37;3.93;;;2.03;;
26211;SDS011;13951;49.516;6.094;2023-12-20T04:21:26;5.37;;;2.00;;
26211;SDS011;13951;49.516;6.094;2023-12-20T04:23:59;6.00;;;1.80;;
26211;SDS011;13951;49.516;6.094;2023-12-20T04:26:46;6.77;;;2.03;;
26211;SDS011;13951;49.516;6.094;2023-12-20T04:29:34;4.90;;;2.30;;
26211;SDS011;13951;49.516;6.094;2023-12-20T04:32:26;6.70;;;1.83;;
26211;SDS011;13951;49.516;6.094;2023-12-20T04:35:14;8.67;;;2.00;;
26211;SDS011;13951;49.516;6.094;2023-12-20T04:38:13;3.93;;;1.87;;
26211;SDS011;13951;49.516;6.094;2023-12-20T04:41:03;4.20;;;2.10;;
26211;SDS011;13951;49.516;6.094;2023-12-20T04:43:40;4.17;;;1.67;;
26211;SDS011;13951;49.516;6.094;2023-12-20T04:46:27;9.73;;;2.00;;
26211;SDS011;13951;49.516;6.094;2023-12-20T04:49:14;5.47;;;1.90;;
26211;SDS011;13951;49.516;6.094;2023-12-20T04:52:01;7.80;;;1.77;;
26211;SDS011;13951;49.516;6.094;2023-12-20T04:54:49;6.90;;;2.00;;
26211;SDS011;13951;49.516;6.094;2023-12-20T04:57:25;6.27;;;2.00;;
26211;SDS011;13951;49.516;6.094;2023-12-20T05:00:12;2.50;;;1.53;;
26211;SDS011;13951;49.516;6.094;2023-12-20T05:03:03;4.40;;;1.60;;
26211;SDS011;13951;49.516;6.094;2023-12-20T05:05:37;3.90;;;1.63;;
26211;SDS011;13951;49.516;6.094;2023-12-20T05:08:25;5.97;;;1.90;;
26211;SDS011;13951;49.516;6.094;2023-12-20T05:11:11;6.37;;;1.80;;
26211;SDS011;13951;49.516;6.094;2023-12-20T05:13:54;3.83;;;2.00;;
26211;SDS011;13951;49.516;6.094;2023-12-20T05:18:00;3.87;;;1.80;;
26211;SDS011;13951;49.516;6.094;2023-12-20T05:28:31;3.33;;;1.67;;
26211;SDS011;13951;49.516;6.094;2023-12-20T05:31:20;5.70;;;2.13;;
26211;SDS011;13951;49.516;6.094;2023-12-20T05:34:08;6.00;;;2.30;;
26211;SDS011;13951;49.516;6.094;2023-12-20T05:36:56;7.43;;;2.00;;
26211;SDS011;13951;49.516;6.094;2023-12-20T05:39:44;4.43;;;2.10;;
26211;SDS011;13951;49.516;6.094;2023-12-20T05:42:32;4.73;;;1.73;;
26211;SDS011;13951;49.516;6.094;2023-12-20T05:45:20;8.33;;;2.90;;
26211;SDS011;13951;49.516;6.094;2023-12-20T05:48:08;4.97;;;2.43;;
26211;SDS011;13951;49.516;6.094;2023-12-20T12:41:08;8.33;;;2.70;;
26211;SDS011;13951;49.516;6.094;2023-12-20T12:44:00;7.83;;;2.47;;
26211;SDS011;13951;49.516;6.094;2023-12-20T12:48:23;4.37;;;2.10;;
26211;SDS011;13951;49.516;6.094;2023-12-20T13:04:40;10.90;;;2.80;;
26211;SDS011;13951;49.516;6.094;2023-12-20T13:07:55;9.17;;;2.77;;
26211;SDS011;13951;49.516;6.094;2023-12-20T13:11:21;9.47;;;3.47;;
26211;SDS011;13951;49.516;6.094;2023-12-20T13:21:35;5.57;;;2.50;;
26211;SDS011;13951;49.516;6.094;2023-12-20T13:24:12;9.57;;;2.10;;
26211;SDS011;13951;49.516;6.094;2023-12-20T13:26:47;9.50;;;2.30;;
26211;SDS011;13951;49.516;6.094;2023-12-20T13:29:22;9.23;;;2.53;;
26211;SDS011;13951;49.516;6.094;2023-12-20T13:31:58;8.17;;;2.33;;
26211;SDS011;13951;49.516;6.094;2023-12-20T13:34:43;9.87;;;2.60;;
26211;SDS011;13951;49.516;6.094;2023-12-20T13:37:25;9.37;;;2.43;;
26211;SDS011;13951;49.516;6.094;2023-12-20T13:40:00;9.23;;;2.30;;
26211;SDS011;13951;49.516;6.094;2023-12-20T13:42:41;9.37;;;2.27;;
26211;SDS011;13951;49.516;6.094;2023-12-20T13:45:19;11.23;;;2.70;;
26211;SDS011;13951;49.516;6.094;2023-12-20T13:47:56;11.07;;;2.40;;
26211;SDS011;13951;49.516;6.094;2023-12-20T13:50:32;11.03;;;2.20;;
26211;SDS011;13951;49.516;6.094;2023-12-20T13:53:09;7.67;;;2.10;;
26211;SDS011;13951;49.516;6.094;2023-12-20T13:55:49;10.53;;;2.77;;
26211;SDS011;13951;49.516;6.094;2023-12-20T13:58:29;11.37;;;2.77;;
26211;SDS011;13951;49.516;6.094;2023-12-20T14:01:09;13.53;;;2.87;;
26211;SDS011;13951;49.516;6.094;2023-12-20T14:03:45;10.47;;;2.60;;
26211;SDS011;13951;49.516;6.094;2023-12-20T14:06:22;11.30;;;2.70;;
26211;SDS011;13951;49.516;6.094;2023-12-20T14:08:57;8.63;;;2.47;;
26211;SDS011;13951;49.516;6.094;2023-12-20T14:12:07;12.77;;;2.70;;
26211;SDS011;13951;49.516;6.094;2023-12-20T14:14:44;14.77;;;2.40;;
26211;SDS011;13951;49.516;6.094;2023-12-20T14:17:26;11.97;;;2.43;;
26211;SDS011;13951;49.516;6.094;2023-12-20T14:20:08;8.43;;;2.73;;
26211;SDS011;13951;49.516;6.094;2023-12-20T14:22:46;6.77;;;1.83;;
26211;SDS011;13951;49.516;6.094;2023-12-20T14:25:26;9.17;;;2.00;;
26211;SDS011;13951;49.516;6.094;2023-12-20T14:28:04;10.77;;;2.47;;
26211;SDS011;13951;49.516;6.094;2023-12-20T14:30:41;13.03;;;2.40;;
26211;SDS011;13951;49.516;6.094;2023-12-20T14:34:27;8.10;;;2.10;;
26211;SDS011;13951;49.516;6.094;2023-12-20T14:37:07;10.73;;;2.73;;
26211;SDS011;13951;49.516;6.094;2023-12-20T14:40:02;10.00;;;2.00;;
26211;SDS011;13951;49.516;6.094;2023-12-20T14:42:37;8.13;;;2.10;;
26211;SDS011;13951;49.516;6.094;2023-12-20T14:45:11;7.07;;;2.47;;
26211;SDS011;13951;49.516;6.094;2023-12-20T14:47:49;6.53;;;2.20;;
26211;SDS011;13951;49.516;6.094;2023-12-20T14:50:27;20.47;;;7.47;;
26211;SDS011;13951;49.516;6.094;2023-12-20T14:53:29;24.30;;;8.67;;
26211;SDS011;13951;49.516;6.094;2023-12-20T14:56:04;6.37;;;1.93;;
26211;SDS011;13951;49.516;6.094;2023-12-20T14:58:39;6.93;;;2.23;;
26211;SDS011;13951;49.516;6.094;2023-12-20T15:01:14;9.20;;;2.20;;
26211;SDS011;13951;49.516;6.094;2023-12-20T15:03:48;10.43;;;2.43;;
26211;SDS011;13951;49.516;6.094;2023-12-20T15:06:28;16.13;;;2.60;;
26211;SDS011;13951;49.516;6.094;2023-12-20T15:09:09;7.63;;;2.50;;
26211;SDS011;13951;49.516;6.094;2023-12-20T15:11:43;10.70;;;2.47;;
26211;SDS011;13951;49.516;6.094;2023-12-20T15:14:21;11.60;;;1.97;;
26211;SDS011;13951;49.516;6.094;2023-12-20T15:16:56;8.97;;;2.40;;
26211;SDS011;13951;49.516;6.094;2023-12-20T15:19:31;9.40;;;2.53;;
26211;SDS011;13951;49.516;6.094;2023-12-20T15:22:05;10.33;;;2.20;;
26211;SDS011;13951;49.516;6.094;2023-12-20T15:24:43;9.57;;;2.53;;
26211;SDS011;13951;49.516;6.094;2023-12-20T15:27:21;10.97;;;2.00;;
26211;SDS011;13951;49.516;6.094;2023-12-20T15:30:02;12.97;;;2.40;;
26211;SDS011;13951;49.516;6.094;2023-12-20T15:32:36;9.03;;;2.13;;
26211;SDS011;13951;49.516;6.094;2023-12-20T15:35:10;12.73;;;2.13;;
26211;SDS011;13951;49.516;6.094;2023-12-20T15:37:44;10.63;;;2.67;;
26211;SDS011;13951;49.516;6.094;2023-12-20T15:40:18;9.40;;;2.40;;
26211;SDS011;13951;49.516;6.094;2023-12-20T15:42:52;9.03;;;2.00;;
26211;SDS011;13951;49.516;6.094;2023-12-20T15:45:26;5.97;;;2.07;;
26211;SDS011;13951;49.516;6.094;2023-12-20T15:48:00;6.70;;;2.00;;
26211;SDS011;13951;49.516;6.094;2023-12-20T15:50:34;13.00;;;2.17;;
26211;SDS011;13951;49.516;6.094;2023-12-20T15:53:08;9.70;;;2.40;;
26211;SDS011;13951;49.516;6.094;2023-12-20T15:55:42;10.53;;;2.33;;
26211;SDS011;13951;49.516;6.094;2023-12-20T15:58:16;8.30;;;2.27;;
26211;SDS011;13951;49.516;6.094;2023-12-20T16:00:50;8.23;;;2.67;;
26211;SDS011;13951;49.516;6.094;2023-12-20T16:03:25;8.97;;;2.60;;
26211;SDS011;13951;49.516;6.094;2023-12-20T16:06:03;13.30;;;2.50;;
26211;SDS011;13951;49.516;6.094;2023-12-20T16:08:37;13.63;;;2.97;;
26211;SDS011;13951;49.516;6.094;2023-12-20T16:11:11;8.23;;;2.13;;
26211;SDS011;13951;49.516;6.094;2023-12-20T16:13:44;11.40;;;2.50;;
26211;SDS011;13951;49.516;6.094;2023-12-20T16:16:18;13.00;;;2.77;;
26211;SDS011;13951;49.516;6.094;2023-12-20T16:18:51;10.93;;;2.30;;
26211;SDS011;13951;49.516;6.094;2023-12-20T16:21:25;10.77;;;2.60;;
26211;SDS011;13951;49.516;6.094;2023-12-20T16:23:58;7.83;;;2.63;;
26211;SDS011;13951;49.516;6.094;2023-12-20T16:26:31;6.90;;;2.17;;
26211;SDS011;13951;49.516;6.094;2023-12-20T16:29:05;13.83;;;2.40;;
26211;SDS011;13951;49.516;6.094;2023-12-20T16:31:38;7.53;;;2.30;;
26211;SDS011;13951;49.516;6.094;2023-12-20T16:34:12;7.33;;;2.30;;
26211;SDS011;13951;49.516;6.094;2023-12-20T16:36:52;8.83;;;2.80;;
26211;SDS011;13951;49.516;6.094;2023-12-20T16:39:28;18.57;;;5.83;;
26211;SDS011;13951;49.516;6.094;2023-12-20T16:42:01;10.10;;;2.43;;
26211;SDS011;13951;49.516;6.094;2023-12-20T16:44:36;7.87;;;2.50;;
26211;SDS011;13951;49.516;6.094;2023-12-20T16:47:09;8.17;;;2.33;;
26211;SDS011;13951;49.516;6.094;2023-12-20T16:49:44;6.00;;;2.50;;
26211;SDS011;13951;49.516;6.094;2023-12-20T16:52:18;10.23;;;2.60;;
26211;SDS011;13951;49.516;6.094;2023-12-20T16:54:56;10.73;;;2.57;;
26211;SDS011;13951;49.516;6.094;2023-12-20T16:57:29;6.37;;;2.50;;
26211;SDS011;13951;49.516;6.094;2023-12-20T17:00:03;11.63;;;3.03;;
26211;SDS011;13951;49.516;6.094;2023-12-20T17:02:37;9.47;;;2.57;;
26211;SDS011;13951;49.516;6.094;2023-12-20T17:05:12;7.60;;;2.70;;
26211;SDS011;13951;49.516;6.094;2023-12-20T17:07:46;13.73;;;3.20;;
26211;SDS011;13951;49.516;6.094;2023-12-20T17:10:20;7.83;;;2.50;;
26211;SDS011;13951;49.516;6.094;2023-12-20T17:12:54;8.90;;;2.67;;
26211;SDS011;13951;49.516;6.094;2023-12-20T17:15:27;7.47;;;2.57;;
26211;SDS011;13951;49.516;6.094;2023-12-20T17:18:01;8.67;;;2.90;;
26211;SDS011;13951;49.516;6.094;2023-12-20T17:20:38;12.80;;;2.93;;
26211;SDS011;13951;49.516;6.094;2023-12-20T17:23:12;11.40;;;3.03;;
26211;SDS011;13951;49.516;6.094;2023-12-20T17:25:45;9.87;;;2.70;;
26211;SDS011;13951;49.516;6.094;2023-12-20T17:28:18;7.50;;;2.70;;
26211;SDS011;13951;49.516;6.094;2023-12-20T17:30:52;6.17;;;2.40;;
26211;SDS011;13951;49.516;6.094;2023-12-20T17:33:25;6.53;;;2.73;;
26211;SDS011;13951;49.516;6.094;2023-12-20T17:35:59;8.20;;;3.10;;
26211;SDS011;13951;49.516;6.094;2023-12-20T17:38:32;9.70;;;2.67;;
26211;SDS011;13951;49.516;6.094;2023-12-20T17:41:09;7.00;;;2.60;;
26211;SDS011;13951;49.516;6.094;2023-12-20T17:43:42;6.60;;;2.83;;
26211;SDS011;13951;49.516;6.094;2023-12-20T17:46:15;9.53;;;3.00;;
26211;SDS011;13951;49.516;6.094;2023-12-20T17:48:49;6.60;;;3.20;;
26211;SDS011;13951;49.516;6.094;2023-12-20T17:51:22;8.47;;;3.30;;
26211;SDS011;13951;49.516;6.094;2023-12-20T17:54:11;7.00;;;3.40;;
26211;SDS011;13951;49.516;6.094;2023-12-20T17:56:58;6.83;;;2.80;;
26211;SDS011;13951;49.516;6.094;2023-12-20T17:59:49;9.13;;;3.70;;
26211;SDS011;13951;49.516;6.094;2023-12-20T18:02:39;10.10;;;3.67;;
26211;SDS011;13951;49.516;6.094;2023-12-20T18:05:26;11.47;;;3.60;;
26211;SDS011;13951;49.516;6.094;2023-12-20T18:08:18;6.80;;;3.10;;
26211;SDS011;13951;49.516;6.094;2023-12-20T18:10:53;6.60;;;3.10;;
26211;SDS011;13951;49.516;6.094;2023-12-20T18:13:42;7.93;;;3.43;;
26211;SDS011;13951;49.516;6.094;2023-12-20T18:16:29;9.33;;;3.53;;
26211;SDS011;13951;49.516;6.094;2023-12-20T18:19:16;8.27;;;3.50;;
26211;SDS011;13951;49.516;6.094;2023-12-20T18:22:04;11.10;;;3.67;;
26211;SDS011;13951;49.516;6.094;2023-12-20T18:24:52;7.93;;;3.73;;
26211;SDS011;13951;49.516;6.094;2023-12-20T18:27:42;9.57;;;3.90;;
26211;SDS011;13951;49.516;6.094;2023-12-20T18:30:29;5.27;;;3.10;;
26211;SDS011;13951;49.516;6.094;2023-12-20T18:33:16;8.77;;;3.60;;
26211;SDS011;13951;49.516;6.094;2023-12-20T18:36:04;6.70;;;3.43;;
26211;SDS011;13951;49.516;6.094;2023-12-20T18:38:38;8.33;;;3.23;;
26211;SDS011;13951;49.516;6.094;2023-12-20T18:41:25;7.03;;;2.93;;
26211;SDS011;13951;49.516;6.094;2023-12-20T18:44:13;5.23;;;3.30;;
26211;SDS011;13951;49.516;6.094;2023-12-20T18:47:02;5.33;;;3.37;;
26211;SDS011;13951;49.516;6.094;2023-12-20T18:49:50;4.27;;;2.50;;
26211;SDS011;13951;49.516;6.094;2023-12-20T18:52:37;7.93;;;2.87;;
26211;SDS011;13951;49.516;6.094;2023-12-20T18:55:25;6.87;;;2.97;;
26211;SDS011;13951;49.516;6.094;2023-12-20T18:58:12;4.63;;;3.47;;
26211;SDS011;13951;49.516;6.094;2023-12-20T19:01:00;7.27;;;3.30;;
26211;SDS011;13951;49.516;6.094;2023-12-20T19:03:48;4.37;;;2.90;;
26211;SDS011;13951;49.516;6.094;2023-12-20T19:06:35;6.30;;;3.23;;
26211;SDS011;13951;49.516;6.094;2023-12-20T19:09:22;6.20;;;3.10;;
26211;SDS011;13951;49.516;6.094;2023-12-20T19:12:04;7.20;;;3.33;;
26211;SDS011;13951;49.516;6.094;2023-12-20T19:14:53;6.23;;;3.90;;
26211;SDS011;13951;49.516;6.094;2023-12-20T19:17:30;4.60;;;3.03;;
26211;SDS011;13951;49.516;6.094;2023-12-20T19:20:04;5.30;;;3.30;;
26211;SDS011;13951;49.516;6.094;2023-12-20T19:22:42;5.57;;;3.83;;
26211;SDS011;13951;49.516;6.094;2023-12-20T19:25:15;6.80;;;3.83;;
26211;SDS011;13951;49.516;6.094;2023-12-20T19:28:02;6.63;;;3.73;;
26211;SDS011;13951;49.516;6.094;2023-12-20T19:30:35;9.50;;;4.20;;
26211;SDS011;13951;49.516;6.094;2023-12-20T19:33:24;7.70;;;3.87;;
26211;SDS011;13951;49.516;6.094;2023-12-20T19:36:11;4.70;;;3.10;;
26211;SDS011;13951;49.516;6.094;2023-12-20T19:38:58;7.20;;;3.10;;
26211;SDS011;13951;49.516;6.094;2023-12-20T19:41:44;6.93;;;2.43;;
26211;SDS011;13951;49.516;6.094;2023-12-20T19:44:32;5.10;;;2.60;;
26211;SDS011;13951;49.516;6.094;2023-12-20T19:47:18;9.17;;;2.97;;
26211;SDS011;13951;49.516;6.094;2023-12-20T19:50:05;6.23;;;2.90;;
26211;SDS011;13951;49.516;6.094;2023-12-20T19:52:39;6.67;;;3.10;;
26211;SDS011;13951;49.516;6.094;2023-12-20T19:55:20;4.03;;;2.50;;
26211;SDS011;13951;49.516;6.094;2023-12-20T19:57:57;6.97;;;2.83;;
26211;SDS011;13951;49.516;6.094;2023-12-20T20:00:44;5.17;;;2.73;;
26211;SDS011;13951;49.516;6.094;2023-12-20T20:03:31;5.80;;;2.80;;
26211;SDS011;13951;49.516;6.094;2023-12-20T20:06:05;3.93;;;2.70;;
26211;SDS011;13951;49.516;6.094;2023-12-20T20:08:52;5.43;;;2.43;;
26211;SDS011;13951;49.516;6.094;2023-12-20T20:11:29;4.23;;;2.70;;
26211;SDS011;13951;49.516;6.094;2023-12-20T20:14:16;4.83;;;2.40;;
26211;SDS011;13951;49.516;6.094;2023-12-20T20:17:03;3.23;;;2.40;;
26211;SDS011;13951;49.516;6.094;2023-12-20T20:19:50;4.90;;;2.73;;
26211;SDS011;13951;49.516;6.094;2023-12-20T20:22:37;5.50;;;2.87;;
26211;SDS011;13951;49.516;6.094;2023-12-20T20:25:24;6.63;;;3.00;;
26211;SDS011;13951;49.516;6.094;2023-12-20T20:28:11;6.03;;;2.93;;
26211;SDS011;13951;49.516;6.094;2023-12-20T20:30:58;7.60;;;3.17;;
26211;SDS011;13951;49.516;6.094;2023-12-20T20:33:45;6.70;;;3.50;;
26211;SDS011;13951;49.516;6.094;2023-12-20T20:36:20;7.07;;;3.50;;
26211;SDS011;13951;49.516;6.094;2023-12-20T20:39:07;8.57;;;3.67;;
26211;SDS011;13951;49.516;6.094;2023-12-20T20:41:41;5.97;;;3.73;;
26211;SDS011;13951;49.516;6.094;2023-12-20T20:45:52;7.37;;;3.83;;
26211;SDS011;13951;49.516;6.094;2023-12-20T20:48:57;9.07;;;3.50;;
26211;SDS011;13951;49.516;6.094;2023-12-20T20:52:47;5.97;;;2.73;;
26211;SDS011;13951;49.516;6.094;2023-12-20T21:13:38;4.43;;;1.97;;
26211;SDS011;13951;49.516;6.094;2023-12-20T21:17:13;3.97;;;2.40;;
26211;SDS011;13951;49.516;6.094;2023-12-20T21:20:40;2.60;;;1.80;;
26211;SDS011;13951;49.516;6.094;2023-12-20T21:23:56;2.43;;;1.50;;
26211;SDS011;13951;49.516;6.094;2023-12-20T21:26:51;3.50;;;1.73;;
26211;SDS011;13951;49.516;6.094;2023-12-20T21:30:08;3.90;;;1.60;;
26211;SDS011;13951;49.516;6.094;2023-12-20T21:33:45;2.97;;;1.47;;
26211;SDS011;13951;49.516;6.094;2023-12-20T21:36:53;2.23;;;1.70;;
26211;SDS011;13951;49.516;6.094;2023-12-20T21:40:31;1.93;;;1.53;;
26211;SDS011;13951;49.516;6.094;2023-12-20T21:44:17;3.33;;;1.60;;
26211;SDS011;13951;49.516;6.094;2023-12-20T21:47:30;1.57;;;1.47;;
26211;SDS011;13951;49.516;6.094;2023-12-20T21:51:42;2.50;;;1.90;;
26211;SDS011;13951;49.516;6.094;2023-12-20T21:54:41;2.73;;;1.80;;
26211;SDS011;13951;49.516;6.094;2023-12-20T21:57:59;2.50;;;1.80;;
26211;SDS011;13951;49.516;6.094;2023-12-20T22:01:40;1.67;;;1.37;;
26211;SDS011;13951;49.516;6.094;2023-12-20T22:04:29;1.53;;;1.20;;
26211;SDS011;13951;49.516;6.094;2023-12-20T22:07:41;1.80;;;1.40;;
26211;SDS011;13951;49.516;6.094;2023-12-20T22:11:11;1.37;;;1.10;;
26211;SDS011;13951;49.516;6.094;2023-12-20T22:14:39;1.57;;;0.83;;
26211;SDS011;13951;49.516;6.094;2023-12-20T22:20:52;1.03;;;0.93;;
26211;SDS011;13951;49.516;6.094;2023-12-20T22:24:08;2.20;;;0.90;;
26211;SDS011;13951;49.516;6.094;2023-12-20T22:31:07;1.43;;;1.20;;
26211;SDS011;13951;49.516;6.094;2023-12-20T22:34:26;1.60;;;1.07;;
26211;SDS011;13951;49.516;6.094;2023-12-20T22:38:00;3.33;;;1.07;;
26211;SDS011;13951;49.516;6.094;2023-12-20T22:41:14;3.37;;;1.50;;
26211;SDS011;13951;49.516;6.094;2023-12-20T22:44:11;1.80;;;1.27;;
26211;SDS011;13951;49.516;6.094;2023-12-20T22:47:13;1.40;;;1.30;;
26211;SDS011;13951;49.516;6.094;2023-12-20T22:50:05;3.00;;;1.40;;
26211;SDS011;13951;49.516;6.094;2023-12-20T22:53:18;1.50;;;1.30;;
26211;SDS011;13951;49.516;6.094;2023-12-20T22:56:31;1.80;;;1.40;;
26211;SDS011;13951;49.516;6.094;2023-12-20T23:00:00;1.53;;;1.30;;
26211;SDS011;13951;49.516;6.094;2023-12-20T23:03:08;1.53;;;1.30;;
26211;SDS011;13951;49.516;6.094;2023-12-20T23:06:07;2.00;;;1.10;;
26211;SDS011;13951;49.516;6.094;2023-12-20T23:08:59;1.03;;;0.93;;
26211;SDS011;13951;49.516;6.094;2023-12-20T23:11:58;2.07;;;1.10;;
26211;SDS011;13951;49.516;6.094;2023-12-20T23:22:19;0.70;;;0.70;;
26211;SDS011;13951;49.516;6.094;2023-12-20T23:25:33;0.90;;;0.90;;
26211;SDS011;13951;49.516;6.094;2023-12-20T23:28:47;0.80;;;0.80;;
26211;SDS011;13951;49.516;6.094;2023-12-20T23:31:36;0.70;;;0.70;;
26211;SDS011;13951;49.516;6.094;2023-12-20T23:34:35;1.23;;;0.70;;
26211;SDS011;13951;49.516;6.094;2023-12-20T23:37:23;1.20;;;0.70;;
26211;SDS011;13951;49.516;6.094;2023-12-20T23:50:32;1.13;;;0.60;;
